createdAt,value
2019-03-27T00:00:20.286Z,8.05
2019-03-27T00:02:49.903Z,7.53
2019-03-27T00:05:19.214Z,8.68
2019-03-27T00:07:48.811Z,8.33
2019-03-27T00:10:18.103Z,9.70
2019-03-27T00:12:47.375Z,9.08
2019-03-27T00:15:17.646Z,10.03
2019-03-27T00:17:46.927Z,8.95
2019-03-27T00:20:16.288Z,9.83
2019-03-27T00:22:45.563Z,9.48
2019-03-27T00:25:15.414Z,10.75
2019-03-27T00:27:44.702Z,12.45
2019-03-27T00:30:14.342Z,14.68
2019-03-27T00:32:43.634Z,15.18
2019-03-27T00:35:12.927Z,12.60
2019-03-27T00:37:42.219Z,13.32
2019-03-27T00:40:12.915Z,11.15
2019-03-27T00:42:42.439Z,13.58
2019-03-27T00:45:25.464Z,12.93
2019-03-27T00:47:43.187Z,14.25
2019-03-27T00:50:14.241Z,12.75
2019-03-27T00:52:43.802Z,10.88
2019-03-27T00:55:13.259Z,10.20
2019-03-27T00:57:42.630Z,11.25
2019-03-27T01:00:24.198Z,11.90
2019-03-27T01:02:53.495Z,10.60
2019-03-27T01:05:22.947Z,11.85
2019-03-27T01:07:52.247Z,12.15
2019-03-27T01:10:21.534Z,10.75
2019-03-27T01:12:50.830Z,10.90
2019-03-27T01:15:21.201Z,11.53
2019-03-27T01:17:50.495Z,11.25
2019-03-27T01:20:19.778Z,11.73
2019-03-27T01:22:49.072Z,11.15
2019-03-27T01:25:18.647Z,12.58
2019-03-27T01:27:48.002Z,12.78
2019-03-27T01:30:17.663Z,11.93
2019-03-27T01:32:46.955Z,13.10
2019-03-27T01:35:16.249Z,12.60
2019-03-27T01:37:45.543Z,14.23
2019-03-27T01:40:15.013Z,13.28
2019-03-27T01:42:44.308Z,12.35
2019-03-27T01:45:13.658Z,12.88
2019-03-27T01:47:42.950Z,12.73
2019-03-27T01:50:12.307Z,12.60
2019-03-27T01:52:41.606Z,14.93
2019-03-27T01:55:11.074Z,11.10
2019-03-27T01:57:40.367Z,13.65
2019-03-27T02:00:09.994Z,13.45
2019-03-27T02:02:39.287Z,11.88
2019-03-27T02:05:08.807Z,14.18
2019-03-27T02:07:38.107Z,13.38
2019-03-27T02:10:09.350Z,15.00
2019-03-27T02:12:38.661Z,14.15
2019-03-27T02:15:08.777Z,13.65
2019-03-27T02:17:38.063Z,15.40
2019-03-27T02:20:08.483Z,12.90
2019-03-27T02:22:38.102Z,16.80
2019-03-27T02:25:08.510Z,17.00
2019-03-27T02:27:37.794Z,15.30
2019-03-27T02:30:08.014Z,13.28
2019-03-27T02:32:37.304Z,13.50
2019-03-27T02:35:07.222Z,12.40
2019-03-27T02:37:36.517Z,14.58
2019-03-27T02:40:07.366Z,13.20
2019-03-27T02:42:36.720Z,13.50
2019-03-27T02:45:07.055Z,13.50
2019-03-27T02:47:36.332Z,13.48
2019-03-27T02:50:08.919Z,14.38
2019-03-27T02:52:38.191Z,14.85
2019-03-27T02:55:08.625Z,14.05
2019-03-27T02:57:37.911Z,14.75
2019-03-27T03:00:10.415Z,14.75
2019-03-27T03:02:39.700Z,15.32
2019-03-27T03:05:10.539Z,15.05
2019-03-27T03:07:39.827Z,15.30
2019-03-27T03:10:11.130Z,15.00
2019-03-27T03:12:40.420Z,15.78
2019-03-27T03:15:10.270Z,15.23
2019-03-27T03:17:39.551Z,17.45
2019-03-27T03:20:09.784Z,17.30
2019-03-27T03:22:39.343Z,15.28
2019-03-27T03:25:08.868Z,14.63
2019-03-27T03:27:38.151Z,17.37
2019-03-27T03:30:12.273Z,18.42
2019-03-27T03:32:41.572Z,16.02
2019-03-27T03:35:11.059Z,17.10
2019-03-27T03:37:40.351Z,15.03
2019-03-27T03:40:10.383Z,17.05
2019-03-27T03:42:39.836Z,15.90
2019-03-27T03:45:09.658Z,15.03
2019-03-27T03:47:38.961Z,14.73
2019-03-27T03:50:10.163Z,16.10
2019-03-27T03:52:39.440Z,13.75
2019-03-27T03:55:08.897Z,15.13
2019-03-27T03:57:38.716Z,17.48
2019-03-27T04:00:08.747Z,16.50
2019-03-27T04:02:38.671Z,18.75
2019-03-27T04:05:08.308Z,22.48
2019-03-27T04:07:37.581Z,22.85
2019-03-27T04:10:07.222Z,21.95
2019-03-27T04:12:36.818Z,22.35
2019-03-27T04:15:07.583Z,18.60
2019-03-27T04:17:37.164Z,17.92
2019-03-27T04:20:07.392Z,18.57
2019-03-27T04:22:37.097Z,20.52
2019-03-27T04:25:07.539Z,18.23
2019-03-27T04:27:36.832Z,19.62
2019-03-27T04:30:09.210Z,19.80
2019-03-27T04:32:38.807Z,21.07
2019-03-27T04:35:08.264Z,20.20
2019-03-27T04:37:37.551Z,20.97
2019-03-27T04:40:08.247Z,19.02
2019-03-27T04:42:37.851Z,19.45
2019-03-27T04:45:07.663Z,19.95
2019-03-27T04:47:37.278Z,18.92
2019-03-27T04:50:07.931Z,19.90
2019-03-27T04:52:37.227Z,20.72
2019-03-27T04:55:06.962Z,21.50
2019-03-27T04:57:36.247Z,21.82
2019-03-27T05:00:09.784Z,23.40
2019-03-27T05:02:39.439Z,17.85
2019-03-27T05:05:09.856Z,20.32
2019-03-27T05:07:39.143Z,22.82
2019-03-27T05:10:08.966Z,23.27
2019-03-27T05:12:39.003Z,23.32
2019-03-27T05:15:08.667Z,22.27
2019-03-27T05:17:45.877Z,24.85
2019-03-27T05:20:09.582Z,22.60
2019-03-27T05:22:38.938Z,22.27
2019-03-27T05:25:08.424Z,22.45
2019-03-27T05:27:37.711Z,23.73
2019-03-27T05:30:08.092Z,26.93
2019-03-27T05:32:37.395Z,22.62
2019-03-27T05:35:07.440Z,23.47
2019-03-27T05:37:36.727Z,23.87
2019-03-27T05:40:08.362Z,22.17
2019-03-27T05:42:37.659Z,26.42
2019-03-27T05:45:07.476Z,28.12
2019-03-27T05:47:36.766Z,31.33
2019-03-27T05:50:06.650Z,26.23
2019-03-27T05:52:35.953Z,24.37
2019-03-27T05:55:05.867Z,24.60
2019-03-27T05:57:36.270Z,24.40
2019-03-27T06:00:09.402Z,26.82
2019-03-27T06:02:38.706Z,24.05
2019-03-27T06:05:08.159Z,25.82
2019-03-27T06:07:37.442Z,24.15
2019-03-27T06:10:06.877Z,27.32
2019-03-27T06:12:36.158Z,28.15
2019-03-27T06:15:06.487Z,31.20
2019-03-27T06:17:35.782Z,25.77
2019-03-27T06:20:06.411Z,29.72
2019-03-27T06:22:35.687Z,27.70
2019-03-27T06:25:06.528Z,29.27
2019-03-27T06:27:36.150Z,30.88
2019-03-27T06:30:07.075Z,26.60
2019-03-27T06:32:36.658Z,27.32
2019-03-27T06:35:07.760Z,25.65
2019-03-27T06:37:37.119Z,28.12
2019-03-27T06:40:07.946Z,26.07
2019-03-27T06:42:37.471Z,24.47
2019-03-27T06:45:07.218Z,25.68
2019-03-27T06:47:36.563Z,26.00
2019-03-27T06:50:07.423Z,27.02
2019-03-27T06:52:36.714Z,25.65
2019-03-27T06:55:08.479Z,26.33
2019-03-27T06:57:37.762Z,26.05
2019-03-27T07:00:09.320Z,26.50
2019-03-27T07:02:38.774Z,25.32
2019-03-27T07:05:08.404Z,26.95
2019-03-27T07:07:37.684Z,26.80
2019-03-27T07:10:07.721Z,26.15
2019-03-27T07:12:36.986Z,26.48
2019-03-27T07:15:07.115Z,26.00
2019-03-27T07:17:36.694Z,25.45
2019-03-27T07:20:07.131Z,27.07
2019-03-27T07:22:37.502Z,27.10
2019-03-27T07:25:07.843Z,28.52
2019-03-27T07:27:37.118Z,28.57
2019-03-27T07:30:09.093Z,26.62
2019-03-27T07:32:38.375Z,24.47
2019-03-27T07:35:08.100Z,26.40
2019-03-27T07:37:37.391Z,31.30
2019-03-27T07:40:07.713Z,32.55
2019-03-27T07:42:37.007Z,37.20
2019-03-27T07:45:08.200Z,34.83
2019-03-27T07:47:37.827Z,35.33
2019-03-27T07:50:07.655Z,34.88
2019-03-27T07:52:36.954Z,32.30
2019-03-27T07:55:18.658Z,31.05
2019-03-27T07:57:37.912Z,32.35
2019-03-27T08:00:10.271Z,37.10
2019-03-27T08:02:39.590Z,35.55
2019-03-27T08:05:09.376Z,35.75
2019-03-27T08:07:38.670Z,34.60
2019-03-27T08:10:08.134Z,34.35
2019-03-27T08:12:37.418Z,34.83
2019-03-27T08:15:08.957Z,34.08
2019-03-27T08:17:38.282Z,33.00
2019-03-27T08:20:08.102Z,30.27
2019-03-27T08:22:38.415Z,31.00
2019-03-27T08:25:09.655Z,27.37
2019-03-27T08:27:39.143Z,30.37
2019-03-27T08:30:15.199Z,27.50
2019-03-27T08:32:44.500Z,28.90
2019-03-27T08:35:14.022Z,27.77
2019-03-27T08:37:43.331Z,31.85
2019-03-27T08:40:12.959Z,26.10
2019-03-27T08:42:42.350Z,24.03
2019-03-27T08:45:12.279Z,26.67
2019-03-27T08:47:41.850Z,26.10
2019-03-27T08:50:11.779Z,20.00
2019-03-27T08:52:41.075Z,24.87
2019-03-27T08:55:13.553Z,20.97
2019-03-27T08:57:43.207Z,28.87
2019-03-27T09:00:14.394Z,29.30
2019-03-27T09:02:43.951Z,28.00
2019-03-27T09:05:14.454Z,26.20
2019-03-27T09:07:43.748Z,29.10
2019-03-27T09:10:13.795Z,26.20
2019-03-27T09:12:43.343Z,20.87
2019-03-27T09:15:13.081Z,21.53
2019-03-27T09:17:42.401Z,23.70
2019-03-27T09:20:12.527Z,23.30
2019-03-27T09:22:41.818Z,24.60
2019-03-27T09:25:11.453Z,25.60
2019-03-27T09:27:40.747Z,26.82
2019-03-27T09:30:12.497Z,25.43
2019-03-27T09:32:42.053Z,26.23
2019-03-27T09:35:11.607Z,24.93
2019-03-27T09:37:40.897Z,25.63
2019-03-27T09:40:10.875Z,26.97
2019-03-27T09:42:40.162Z,28.00
2019-03-27T09:45:10.323Z,26.12
2019-03-27T09:47:39.603Z,26.80
2019-03-27T09:50:09.451Z,24.30
2019-03-27T09:52:39.707Z,27.50
2019-03-27T09:55:09.067Z,26.10
2019-03-27T09:57:38.643Z,28.10
2019-03-27T10:00:09.379Z,29.50
2019-03-27T10:02:39.967Z,30.07
2019-03-27T10:05:10.314Z,31.40
2019-03-27T10:07:39.591Z,32.33
2019-03-27T10:10:09.352Z,31.17
2019-03-27T10:12:38.648Z,28.77
2019-03-27T10:15:09.723Z,33.63
2019-03-27T10:17:39.303Z,30.10
2019-03-27T10:20:08.751Z,28.30
2019-03-27T10:22:38.049Z,24.73
2019-03-27T10:25:07.987Z,24.20
2019-03-27T10:27:37.350Z,22.93
2019-03-27T10:30:07.395Z,20.20
2019-03-27T10:32:36.669Z,22.87
2019-03-27T10:35:06.711Z,22.30
2019-03-27T10:37:36.263Z,19.23
2019-03-27T10:40:07.275Z,21.13
2019-03-27T10:42:37.536Z,23.33
2019-03-27T10:45:07.376Z,22.40
2019-03-27T10:47:36.670Z,20.20
2019-03-27T10:50:17.090Z,20.17
2019-03-27T10:52:37.957Z,19.67
2019-03-27T10:55:07.410Z,18.63
2019-03-27T10:57:36.826Z,18.50
2019-03-27T11:00:10.951Z,21.73
2019-03-27T11:02:40.311Z,18.90
2019-03-27T11:05:09.686Z,17.50
2019-03-27T11:07:38.967Z,17.47
2019-03-27T11:10:08.920Z,17.10
2019-03-27T11:12:38.326Z,18.30
2019-03-27T11:15:08.948Z,21.43
2019-03-27T11:17:38.418Z,19.60
2019-03-27T11:20:08.317Z,20.07
2019-03-27T11:22:37.630Z,19.80
2019-03-27T11:25:07.550Z,17.73
2019-03-27T11:27:36.851Z,16.13
2019-03-27T11:30:09.604Z,15.17
2019-03-27T11:32:39.204Z,17.67
2019-03-27T11:35:08.760Z,16.90
2019-03-27T11:37:38.313Z,16.27
2019-03-27T11:40:08.349Z,15.50
2019-03-27T11:42:37.890Z,13.93
2019-03-27T11:45:08.330Z,13.87
2019-03-27T11:47:37.643Z,13.23
2019-03-27T11:50:09.752Z,14.20
2019-03-27T11:52:39.132Z,13.27
2019-03-27T11:55:08.628Z,11.90
2019-03-27T11:57:38.208Z,11.00
2019-03-27T12:00:11.312Z,12.63
2019-03-27T12:02:40.703Z,11.83
2019-03-27T12:05:10.228Z,12.47
2019-03-27T12:07:40.625Z,11.20
2019-03-27T12:10:10.952Z,13.90
2019-03-27T12:12:40.290Z,11.30
2019-03-27T12:15:09.920Z,13.40
2019-03-27T12:17:39.247Z,12.20
2019-03-27T12:20:09.081Z,12.13
2019-03-27T12:22:39.375Z,14.20
2019-03-27T12:25:08.917Z,13.20
2019-03-27T12:27:38.236Z,14.23
2019-03-27T12:30:08.190Z,16.00
2019-03-27T12:32:37.492Z,14.73
2019-03-27T12:35:07.027Z,14.43
2019-03-27T12:37:36.346Z,14.20
2019-03-27T12:40:11.423Z,14.40
2019-03-27T12:42:36.788Z,12.63
2019-03-27T12:45:07.462Z,14.50
2019-03-27T12:47:37.159Z,13.50
2019-03-27T12:50:08.505Z,12.33
2019-03-27T12:52:37.812Z,12.23
2019-03-27T12:55:07.374Z,13.67
2019-03-27T12:57:36.696Z,12.87
2019-03-27T13:00:08.629Z,15.00
2019-03-27T13:02:37.937Z,14.23
2019-03-27T13:05:07.481Z,13.83
2019-03-27T13:07:49.288Z,14.70
2019-03-27T13:10:08.987Z,13.80
2019-03-27T13:12:38.522Z,14.67
2019-03-27T13:15:07.995Z,14.93
2019-03-27T13:17:37.573Z,14.43
2019-03-27T13:20:07.820Z,14.40
2019-03-27T13:22:38.374Z,15.57
2019-03-27T13:25:09.342Z,14.33
2019-03-27T13:27:40.426Z,14.30
2019-03-27T13:30:10.737Z,15.27
2019-03-27T13:32:40.029Z,13.40
2019-03-27T13:35:09.779Z,16.20
2019-03-27T13:37:39.080Z,14.87
2019-03-27T13:40:09.019Z,14.30
2019-03-27T13:42:38.383Z,14.70
2019-03-27T13:45:08.801Z,14.07
2019-03-27T13:47:38.113Z,15.20
2019-03-27T13:50:12.739Z,13.53
2019-03-27T13:52:41.311Z,13.63
2019-03-27T13:55:10.751Z,12.83
2019-03-27T13:57:40.131Z,11.90
2019-03-27T14:00:12.740Z,13.03
2019-03-27T14:02:42.129Z,12.70
2019-03-27T14:05:11.682Z,12.63
2019-03-27T14:07:41.319Z,11.50
2019-03-27T14:10:10.920Z,12.70
2019-03-27T14:12:40.216Z,12.10
2019-03-27T14:15:09.960Z,11.50
2019-03-27T14:17:39.524Z,12.10
2019-03-27T14:20:12.256Z,12.80
2019-03-27T14:22:41.681Z,11.80
2019-03-27T14:25:11.750Z,12.73
2019-03-27T14:27:41.441Z,10.77
2019-03-27T14:30:13.875Z,12.00
2019-03-27T14:32:43.182Z,10.63
2019-03-27T14:35:13.124Z,10.77
2019-03-27T14:37:42.491Z,10.13
2019-03-27T14:40:12.141Z,8.70
2019-03-27T14:42:41.444Z,11.60
2019-03-27T14:45:11.015Z,9.23
2019-03-27T14:47:40.312Z,9.13
2019-03-27T14:50:10.390Z,10.00
2019-03-27T14:52:39.759Z,9.80
2019-03-27T14:55:09.513Z,10.50
2019-03-27T14:57:38.928Z,10.13
2019-03-27T15:00:10.969Z,9.17
2019-03-27T15:02:40.331Z,9.57
2019-03-27T15:05:10.128Z,11.30
2019-03-27T15:07:39.453Z,11.60
2019-03-27T15:10:09.197Z,11.23
2019-03-27T15:12:38.507Z,11.27
2019-03-27T15:15:09.554Z,11.77
2019-03-27T15:17:39.204Z,12.77
2019-03-27T15:20:09.975Z,12.40
2019-03-27T15:22:39.274Z,13.30
2019-03-27T15:25:09.068Z,14.63
2019-03-27T15:27:39.358Z,13.37
2019-03-27T15:30:13.020Z,13.70
2019-03-27T15:32:42.568Z,12.93
2019-03-27T15:35:11.944Z,13.30
2019-03-27T15:37:41.258Z,12.97
2019-03-27T15:40:11.092Z,12.20
2019-03-27T15:42:40.836Z,15.97
2019-03-27T15:45:10.962Z,13.70
2019-03-27T15:47:40.268Z,13.90
2019-03-27T15:50:10.154Z,14.90
2019-03-27T15:52:39.787Z,14.50
2019-03-27T15:55:09.248Z,14.43
2019-03-27T15:57:38.656Z,16.77
2019-03-27T16:00:09.023Z,13.80
2019-03-27T16:02:38.627Z,14.00
2019-03-27T16:05:08.011Z,14.33
2019-03-27T16:07:37.324Z,14.67
2019-03-27T16:10:07.259Z,15.43
2019-03-27T16:12:36.820Z,14.17
2019-03-27T16:15:10.171Z,13.63
2019-03-27T16:17:39.499Z,15.10
2019-03-27T16:20:09.329Z,14.70
2019-03-27T16:22:49.891Z,15.33
2019-03-27T16:25:10.330Z,15.60
2019-03-27T16:27:39.641Z,17.17
2019-03-27T16:30:10.288Z,16.70
2019-03-27T16:32:39.656Z,14.90
2019-03-27T16:35:10.097Z,18.50
2019-03-27T16:37:39.400Z,15.10
2019-03-27T16:40:09.051Z,17.40
2019-03-27T16:42:38.351Z,17.07
2019-03-27T16:45:08.309Z,16.80
2019-03-27T16:47:37.783Z,15.27
2019-03-27T16:50:07.932Z,15.50
2019-03-27T16:52:37.533Z,15.20
2019-03-27T16:55:08.675Z,18.07
2019-03-27T16:57:37.960Z,16.47
2019-03-27T17:00:08.308Z,16.20
2019-03-27T17:02:37.712Z,16.57
2019-03-27T17:05:08.515Z,18.73
2019-03-27T17:07:37.812Z,19.40
2019-03-27T17:10:07.600Z,19.93
2019-03-27T17:12:37.270Z,17.33
2019-03-27T17:15:07.785Z,15.80
2019-03-27T17:17:37.089Z,15.77
2019-03-27T17:20:11.187Z,17.37
2019-03-27T17:22:40.488Z,16.17
2019-03-27T17:25:10.333Z,16.00
2019-03-27T17:27:39.660Z,15.40
2019-03-27T17:30:10.016Z,14.80
2019-03-27T17:32:40.683Z,15.37
2019-03-27T17:35:10.497Z,15.47
2019-03-27T17:37:39.789Z,13.20
2019-03-27T17:40:09.279Z,12.90
2019-03-27T17:42:38.908Z,13.07
2019-03-27T17:45:08.552Z,13.97
2019-03-27T17:47:37.851Z,15.30
2019-03-27T17:50:07.955Z,13.97
2019-03-27T17:52:38.355Z,13.93
2019-03-27T17:55:08.791Z,15.10
2019-03-27T17:57:39.336Z,13.00
2019-03-27T18:00:10.574Z,14.50
2019-03-27T18:02:40.122Z,13.03
2019-03-27T18:05:09.567Z,15.03
2019-03-27T18:07:38.883Z,13.20
2019-03-27T18:10:08.432Z,16.73
2019-03-27T18:12:38.002Z,13.13
2019-03-27T18:15:08.241Z,14.00
2019-03-27T18:17:37.619Z,14.80
2019-03-27T18:20:07.431Z,14.80
2019-03-27T18:22:36.744Z,15.40
2019-03-27T18:25:06.934Z,16.30
2019-03-27T18:27:36.285Z,16.03
2019-03-27T18:30:08.284Z,15.47
2019-03-27T18:32:37.630Z,15.83
2019-03-27T18:35:07.179Z,17.13
2019-03-27T18:37:36.554Z,15.20
2019-03-27T18:40:06.805Z,16.03
2019-03-27T18:42:36.274Z,19.33
2019-03-27T18:45:07.224Z,15.77
2019-03-27T18:47:36.541Z,16.77
2019-03-27T18:50:07.568Z,18.17
2019-03-27T18:52:36.880Z,17.63
2019-03-27T18:55:09.268Z,16.07
2019-03-27T18:57:38.585Z,15.33
2019-03-27T19:00:08.724Z,16.20
2019-03-27T19:02:38.118Z,18.17
2019-03-27T19:05:08.068Z,16.70
2019-03-27T19:07:37.920Z,17.70
2019-03-27T19:10:07.660Z,17.20
2019-03-27T19:12:37.009Z,16.63
2019-03-27T19:15:07.970Z,16.40
2019-03-27T19:17:37.308Z,16.40
2019-03-27T19:20:08.091Z,17.50
2019-03-27T19:22:37.400Z,22.93
2019-03-27T19:25:08.137Z,22.33
2019-03-27T19:27:37.449Z,20.27
2019-03-27T19:30:08.825Z,21.57
2019-03-27T19:32:38.312Z,19.37
2019-03-27T19:35:08.223Z,19.37
2019-03-27T19:37:37.877Z,19.50
2019-03-27T19:40:07.517Z,20.27
2019-03-27T19:42:37.866Z,18.30
2019-03-27T19:45:07.241Z,19.50
2019-03-27T19:47:36.926Z,19.70
2019-03-27T19:50:08.024Z,19.67
2019-03-27T19:52:37.328Z,18.63
2019-03-27T19:55:06.631Z,18.93
2019-03-27T19:57:35.928Z,18.40
2019-03-27T20:00:09.015Z,20.10
2019-03-27T20:02:39.543Z,22.30
2019-03-27T20:05:11.240Z,19.70
2019-03-27T20:07:40.572Z,18.70
2019-03-27T20:10:10.974Z,19.15
2019-03-27T20:12:40.384Z,19.00
2019-03-27T20:15:12.767Z,22.75
2019-03-27T20:17:42.449Z,19.13
2019-03-27T20:20:13.031Z,20.70
2019-03-27T20:22:42.413Z,19.60
2019-03-27T20:25:14.808Z,21.73
2019-03-27T20:27:43.525Z,20.55
2019-03-27T20:30:18.459Z,21.03
2019-03-27T20:32:47.767Z,20.48
2019-03-27T20:35:17.081Z,22.70
2019-03-27T20:37:46.544Z,22.42
2019-03-27T20:40:16.275Z,23.80
2019-03-27T20:42:45.693Z,26.12
2019-03-27T20:45:15.336Z,27.35
2019-03-27T20:47:44.651Z,24.95
2019-03-27T20:50:14.312Z,25.10
2019-03-27T20:52:43.913Z,24.40
2019-03-27T20:55:13.468Z,25.05
2019-03-27T20:57:44.264Z,27.30
2019-03-27T21:00:14.010Z,26.27
2019-03-27T21:02:43.417Z,26.70
2019-03-27T21:05:12.926Z,25.65
2019-03-27T21:07:42.296Z,24.35
2019-03-27T21:10:12.309Z,23.62
2019-03-27T21:12:41.615Z,26.73
2019-03-27T21:15:11.699Z,23.95
2019-03-27T21:17:41.040Z,26.60
2019-03-27T21:20:10.689Z,25.40
2019-03-27T21:22:40.048Z,29.90
2019-03-27T21:25:09.921Z,26.80
2019-03-27T21:27:39.471Z,27.13
2019-03-27T21:30:10.840Z,29.15
2019-03-27T21:32:52.707Z,27.42
2019-03-27T21:35:22.380Z,27.48
2019-03-27T21:37:51.682Z,28.70
2019-03-27T21:40:22.326Z,25.10
2019-03-27T21:42:51.631Z,26.02
2019-03-27T21:45:22.787Z,31.05
2019-03-27T21:47:52.082Z,31.23
2019-03-27T21:50:22.442Z,31.50
2019-03-27T21:53:00.670Z,29.50
2019-03-27T21:55:23.321Z,30.82
2019-03-27T21:57:52.706Z,28.83
2019-03-27T22:00:40.059Z,29.90
2019-03-27T22:03:09.775Z,28.17
2019-03-27T22:05:39.071Z,27.50
2019-03-27T22:08:08.451Z,28.00
2019-03-27T22:10:37.802Z,30.12
2019-03-27T22:13:07.126Z,29.20
2019-03-27T22:15:37.160Z,25.55
2019-03-27T22:18:07.073Z,26.52
2019-03-27T22:20:39.458Z,25.55
2019-03-27T22:23:07.839Z,26.80
2019-03-27T22:25:37.223Z,27.37
2019-03-27T22:28:06.664Z,27.40
2019-03-27T22:30:36.000Z,26.45
2019-03-27T22:33:24.727Z,26.77
2019-03-27T22:35:54.371Z,28.55
2019-03-27T22:38:23.697Z,27.32
2019-03-27T22:40:52.987Z,27.90
2019-03-27T22:43:22.279Z,25.88
2019-03-27T22:45:51.574Z,25.30
2019-03-27T22:48:20.863Z,24.45
2019-03-27T22:50:50.163Z,26.75
2019-03-27T22:53:19.447Z,24.72
2019-03-27T22:55:50.456Z,25.00
2019-03-27T22:58:19.727Z,25.70
2019-03-27T23:00:53.274Z,26.17
2019-03-27T23:03:22.771Z,27.27
2019-03-27T23:05:52.083Z,28.50
2019-03-27T23:08:21.379Z,31.55
2019-03-27T23:10:50.667Z,35.17
2019-03-27T23:13:20.572Z,35.45
2019-03-27T23:15:49.863Z,33.02
2019-03-27T23:18:20.243Z,31.65
2019-03-27T23:20:49.856Z,31.97
2019-03-27T23:23:19.470Z,29.02
2019-03-27T23:26:02.224Z,31.55
2019-03-27T23:28:19.751Z,33.05
2019-03-27T23:30:49.311Z,33.33
2019-03-27T23:33:20.232Z,32.85
2019-03-27T23:35:49.717Z,33.70
2019-03-27T23:38:19.980Z,34.03
2019-03-27T23:40:49.579Z,31.30
2019-03-27T23:43:19.856Z,32.45
2019-03-27T23:45:49.158Z,30.00
2019-03-27T23:48:18.459Z,31.30
2019-03-27T23:50:47.746Z,31.05
2019-03-27T23:53:17.044Z,30.68
2019-03-27T23:55:46.328Z,31.35
2019-03-27T23:58:15.642Z,31.35
